createdAt,value
2019-04-07T00:19:06.617Z,7.30
2019-04-07T00:32:59.594Z,7.10
2019-04-07T00:36:54.565Z,7.00
2019-04-07T00:40:57.699Z,6.40
2019-04-07T00:45:00.866Z,6.50
2019-04-07T00:49:05.069Z,6.50
2019-04-07T01:25:44.624Z,6.20
2019-04-07T01:29:41.900Z,6.20
2019-04-07T02:12:56.663Z,5.80
2019-04-07T02:17:33.625Z,5.60
2019-04-07T02:21:43.829Z,5.50
2019-04-07T03:05:05.328Z,5.20
2019-04-07T03:48:28.364Z,4.60
2019-04-07T03:52:40.498Z,4.50
2019-04-07T03:56:50.335Z,4.50
2019-04-07T04:01:16.203Z,4.50
2019-04-07T04:05:41.375Z,4.30
2019-04-07T04:09:54.329Z,4.30
2019-04-07T04:14:18.325Z,4.20
2019-04-07T04:18:24.346Z,4.20
2019-04-07T04:22:29.015Z,4.00
2019-04-07T04:26:32.873Z,4.00
2019-04-07T04:30:44.697Z,3.90
2019-04-07T04:34:45.245Z,3.90
2019-04-07T04:38:55.571Z,4.00
2019-04-07T04:42:58.226Z,3.90
2019-04-07T04:47:02.808Z,3.90
2019-04-07T04:51:06.647Z,3.90
2019-04-07T04:55:14.284Z,3.90
2019-04-07T04:59:16.711Z,3.90
2019-04-07T05:03:20.466Z,3.90
2019-04-07T05:07:30.116Z,3.90
2019-04-07T05:11:32.782Z,3.90
2019-04-07T05:15:40.089Z,4.00
2019-04-07T05:58:48.397Z,5.40
2019-04-07T06:02:47.106Z,5.60
2019-04-07T06:06:56.422Z,5.70
2019-04-07T06:11:04.074Z,5.90
2019-04-07T06:15:06.332Z,6.10
2019-04-07T06:19:13.448Z,6.30
2019-04-07T06:23:25.782Z,6.50
2019-04-07T06:27:33.672Z,6.70
2019-04-07T06:31:43.583Z,7.20
2019-04-07T06:35:49.931Z,7.60
2019-04-07T06:39:55.837Z,8.00
2019-04-07T06:44:21.116Z,8.20
2019-04-07T06:50:25.796Z,8.50
2019-04-07T06:54:42.518Z,9.00
2019-04-07T06:59:15.545Z,9.20
2019-04-07T07:03:59.742Z,9.60
2019-04-07T07:08:19.356Z,9.80
2019-04-07T07:12:46.115Z,9.90
2019-04-07T07:17:01.834Z,10.10
2019-04-07T07:21:33.973Z,10.20
2019-04-07T08:04:45.490Z,12.10
2019-04-07T08:08:47.814Z,12.20
2019-04-07T08:12:51.978Z,12.70
2019-04-07T08:16:55.507Z,12.60
2019-04-07T08:21:03.333Z,12.80
2019-04-07T09:04:18.909Z,13.70
2019-04-07T09:08:19.178Z,13.90
2019-04-07T09:12:32.234Z,13.60
2019-04-07T09:55:59.105Z,15.60
2019-04-07T10:00:23.026Z,15.40
2019-04-07T10:43:56.242Z,16.70
2019-04-07T10:48:06.989Z,17.20
2019-04-07T10:52:37.655Z,17.10
2019-04-07T10:56:52.377Z,17.20
2019-04-07T11:01:21.016Z,17.40
2019-04-07T11:05:44.787Z,17.40
2019-04-07T11:49:18.251Z,19.50
2019-04-07T11:54:02.130Z,18.60
2019-04-07T11:58:39.784Z,18.50
2019-04-07T12:03:00.806Z,18.30
2019-04-07T12:07:34.507Z,19.00
2019-04-07T12:23:44.415Z,19.20
2019-04-07T12:27:58.101Z,18.70
2019-04-07T13:11:36.924Z,17.90
2019-04-07T13:15:58.167Z,19.10
2019-04-07T13:20:28.721Z,19.70
2019-04-07T13:24:51.043Z,20.20
2019-04-07T14:08:38.744Z,18.80
2019-04-07T14:12:49.016Z,17.50
2019-04-07T14:17:15.475Z,16.80
2019-04-07T14:21:29.550Z,17.40
2019-04-07T15:02:08.391Z,17.00
2019-04-07T15:06:03.533Z,17.20
2019-04-07T15:10:27.618Z,17.80
2019-04-07T15:53:40.397Z,16.30
2019-04-07T16:36:55.134Z,15.60
2019-04-07T16:40:55.949Z,15.60
2019-04-07T16:44:59.658Z,15.50
2019-04-07T16:49:04.470Z,15.30
2019-04-07T16:53:13.807Z,15.30
2019-04-07T16:57:17.323Z,15.20
2019-04-07T17:01:27.688Z,15.00
2019-04-07T17:05:30.267Z,15.00
2019-04-07T17:09:37.675Z,14.90
2019-04-07T17:13:45.989Z,14.80
2019-04-07T17:17:54.699Z,14.70
2019-04-07T17:21:59.149Z,14.70
2019-04-07T17:26:08.347Z,14.60
2019-04-07T17:30:16.759Z,14.50
2019-04-07T17:34:20.429Z,14.30
2019-04-07T17:38:34.050Z,14.20
2019-04-07T18:21:58.033Z,12.70
2019-04-07T18:26:23.259Z,12.70
2019-04-07T18:30:41.953Z,12.70
2019-04-07T18:35:32.917Z,12.90
2019-04-07T18:39:51.817Z,12.90
2019-04-07T18:44:41.326Z,12.60
2019-04-07T18:49:02.100Z,12.70
2019-04-07T18:53:28.726Z,12.60
2019-04-07T18:57:45.086Z,12.50
2019-04-07T19:02:10.695Z,12.30
2019-04-07T19:45:32.866Z,13.00
2019-04-07T19:49:53.230Z,13.10
2019-04-07T20:33:18.739Z,12.30
2019-04-07T20:37:35.196Z,12.10
2019-04-07T20:41:54.895Z,12.20
2019-04-07T20:46:27.379Z,12.10
2019-04-07T21:29:52.552Z,11.60
2019-04-07T22:13:12.127Z,12.00
2019-04-07T22:56:14.007Z,11.60
2019-04-07T23:00:19.119Z,11.60
2019-04-07T23:04:31.820Z,11.50
2019-04-07T23:47:38.396Z,11.60
